createdAt,value
2018-04-19T00:01:03.995Z,27.47
2018-04-19T00:06:06.029Z,28.47
2018-04-19T00:11:07.339Z,29.97
2018-04-19T00:16:08.681Z,24.00
2018-04-19T00:21:10.711Z,32.47
2018-04-19T00:26:12.030Z,30.87
2018-04-19T00:31:13.350Z,30.87
2018-04-19T00:36:15.394Z,38.40
2018-04-19T00:41:16.709Z,37.57
2018-04-19T00:46:18.022Z,39.80
2018-04-19T00:51:19.324Z,40.30
2018-04-19T00:56:21.371Z,37.83
2018-04-19T01:01:22.668Z,44.03
2018-04-19T01:06:23.975Z,50.03
2018-04-19T01:11:25.285Z,42.83
2018-04-19T01:16:26.582Z,32.30
2018-04-19T01:21:28.662Z,32.07
2018-04-19T01:26:29.986Z,32.80
2018-04-19T01:31:32.071Z,36.37
2018-04-19T01:36:33.373Z,31.43
2018-04-19T01:41:35.417Z,31.60
2018-04-19T01:46:36.762Z,32.00
2018-04-19T01:51:38.058Z,24.13
2018-04-19T01:56:39.374Z,28.50
2018-04-19T02:01:40.678Z,29.23
2018-04-19T02:06:41.981Z,37.23
2018-04-19T02:11:43.269Z,37.23
2018-04-19T02:16:44.603Z,33.17
2018-04-19T02:21:46.638Z,30.70
2018-04-19T02:26:47.944Z,34.50
2018-04-19T02:31:49.246Z,28.57
2018-04-19T02:36:50.553Z,31.30
2018-04-19T02:41:51.854Z,29.90
2018-04-19T02:46:53.930Z,28.40
2018-04-19T02:51:55.275Z,40.53
2018-04-19T02:56:57.359Z,39.93
2018-04-19T03:01:58.670Z,35.20
2018-04-19T03:07:00.782Z,34.43
2018-04-19T03:12:02.890Z,29.03
2018-04-19T03:17:04.939Z,35.93
2018-04-19T03:22:06.263Z,35.50
2018-04-19T03:27:07.554Z,29.73
2018-04-19T03:32:08.882Z,29.03
2018-04-19T03:37:10.208Z,39.43
2018-04-19T03:42:11.514Z,42.10
2018-04-19T03:47:12.807Z,38.23
2018-04-19T03:52:14.165Z,30.43
2018-04-19T03:57:15.470Z,36.40
2018-04-19T04:02:16.771Z,33.60
2018-04-19T04:07:18.070Z,33.07
2018-04-19T04:12:20.131Z,35.33
2018-04-19T04:17:39.971Z,39.67
2018-04-19T04:22:59.835Z,37.27
2018-04-19T04:28:02.740Z,39.37
2018-04-19T04:33:04.065Z,30.97
2018-04-19T04:38:05.366Z,31.73
2018-04-19T04:43:06.686Z,44.27
2018-04-19T04:48:08.011Z,39.60
2018-04-19T04:53:10.071Z,33.30
2018-04-19T04:58:11.395Z,32.23
2018-04-19T05:03:12.695Z,36.47
2018-04-19T05:08:14.786Z,42.10
2018-04-19T05:13:16.109Z,49.27
2018-04-19T05:18:18.183Z,36.87
2018-04-19T05:23:19.506Z,44.03
2018-04-19T05:28:26.922Z,45.53
2018-04-19T05:33:28.270Z,43.10
2018-04-19T05:38:29.568Z,37.80
2018-04-19T05:43:30.907Z,46.00
2018-04-19T05:48:32.252Z,39.47
2018-04-19T05:53:33.612Z,47.37
2018-04-19T05:58:34.944Z,47.27
2018-04-19T06:03:36.267Z,47.30
2018-04-19T06:08:37.644Z,51.03
2018-04-19T06:13:38.925Z,45.57
2018-04-19T06:18:40.981Z,50.10
2018-04-19T06:23:42.329Z,50.07
2018-04-19T06:28:44.410Z,49.70
2018-04-19T06:33:45.733Z,42.37
2018-04-19T06:38:54.655Z,37.97
2018-04-19T06:43:55.986Z,45.70
2018-04-19T06:48:58.030Z,44.40
2018-04-19T06:53:59.350Z,35.73
2018-04-19T06:59:00.650Z,46.33
2018-04-19T07:04:01.983Z,35.17
2018-04-19T07:09:06.246Z,42.73
2018-04-19T07:14:07.558Z,37.10
2018-04-19T07:19:08.870Z,37.57
2018-04-19T07:24:10.208Z,36.20
2018-04-19T07:29:11.502Z,39.27
2018-04-19T07:34:12.839Z,38.70
2018-04-19T07:39:14.200Z,34.00
2018-04-19T07:44:15.516Z,37.30
2018-04-19T07:49:16.834Z,34.60
2018-04-19T07:54:18.893Z,36.87
2018-04-19T07:59:20.210Z,33.13
2018-04-19T08:04:21.536Z,41.90
2018-04-19T08:09:22.847Z,30.97
2018-04-19T08:14:24.174Z,29.50
2018-04-19T08:19:25.486Z,32.20
2018-04-19T08:24:27.513Z,31.43
2018-04-19T08:29:28.863Z,30.43
2018-04-19T08:34:30.182Z,30.43
2018-04-19T08:39:31.514Z,31.00
2018-04-19T08:44:32.890Z,31.10
2018-04-19T08:49:34.174Z,31.33
2018-04-19T08:54:35.498Z,30.50
2018-04-19T08:59:36.801Z,31.13
2018-04-19T09:04:38.112Z,29.73
2018-04-19T09:09:39.426Z,29.80
2018-04-19T09:14:40.729Z,29.93
2018-04-19T09:19:42.046Z,28.43
2018-04-19T09:24:43.367Z,29.03
2018-04-19T09:29:44.697Z,34.80
2018-04-19T09:34:46.027Z,32.83
2018-04-19T09:39:48.087Z,46.77
2018-04-19T09:44:49.410Z,28.30
2018-04-19T09:49:50.731Z,31.70
2018-04-19T09:54:52.039Z,25.80
2018-04-19T09:59:53.333Z,27.63
2018-04-19T10:04:54.694Z,18.23
2018-04-19T10:09:55.998Z,18.13
2018-04-19T10:14:57.303Z,20.07
2018-04-19T10:19:58.616Z,20.90
2018-04-19T10:24:59.957Z,19.13
2018-04-19T10:30:01.277Z,13.47
2018-04-19T10:35:02.639Z,15.73
2018-04-19T10:40:03.987Z,15.53
2018-04-19T10:45:05.333Z,16.67
2018-04-19T10:50:06.642Z,30.00
2018-04-19T10:55:07.955Z,25.17
2018-04-19T11:00:09.282Z,26.17
2018-04-19T11:05:10.620Z,27.97
2018-04-19T11:10:11.993Z,24.00
2018-04-19T11:15:13.323Z,46.67
2018-04-19T11:20:14.675Z,76.93
2018-04-19T11:25:15.999Z,31.63
2018-04-19T11:30:17.351Z,25.13
2018-04-19T11:35:18.670Z,37.90
2018-04-19T11:40:20.001Z,28.77
2018-04-19T11:45:21.301Z,30.23
2018-04-19T11:50:22.641Z,25.83
2018-04-19T11:55:23.982Z,24.03
2018-04-19T12:00:25.319Z,25.23
2018-04-19T12:05:26.842Z,25.00
2018-04-19T12:10:28.160Z,17.80
2018-04-19T12:15:29.519Z,18.23
2018-04-19T12:20:31.605Z,11.80
2018-04-19T12:25:33.092Z,20.90
2018-04-19T12:30:34.419Z,21.73
2018-04-19T12:35:35.751Z,23.53
2018-04-19T12:40:37.066Z,23.23
2018-04-19T12:45:38.403Z,29.73
2018-04-19T12:50:39.712Z,35.73
2018-04-19T12:55:41.011Z,28.50
2018-04-19T13:00:42.356Z,23.90
2018-04-19T13:05:43.658Z,25.87
2018-04-19T13:10:44.987Z,23.07
2018-04-19T13:15:46.318Z,19.00
2018-04-19T13:20:47.625Z,24.97
2018-04-19T13:25:48.969Z,19.93
2018-04-19T13:30:51.019Z,27.57
2018-04-19T13:35:52.333Z,23.10
2018-04-19T13:40:53.762Z,20.10
2018-04-19T13:45:55.844Z,25.73
2018-04-19T13:50:57.166Z,23.20
2018-04-19T13:55:59.224Z,15.17
2018-04-19T14:01:00.598Z,15.90
2018-04-19T14:06:01.946Z,11.63
2018-04-19T14:11:03.309Z,13.67
2018-04-19T14:16:04.637Z,14.00
2018-04-19T14:21:06.782Z,9.43
2018-04-19T14:26:08.110Z,18.50
2018-04-19T14:31:09.551Z,14.17
2018-04-19T14:36:10.879Z,14.93
2018-04-19T14:41:12.187Z,17.80
2018-04-19T14:46:13.501Z,18.50
2018-04-19T14:51:15.593Z,13.07
2018-04-19T14:56:16.910Z,17.13
2018-04-19T15:01:18.232Z,12.33
2018-04-19T15:06:19.556Z,16.57
2018-04-19T15:11:21.695Z,26.43
2018-04-19T15:16:23.227Z,13.27
2018-04-19T15:21:24.773Z,9.30
2018-04-19T15:26:26.374Z,12.43
2018-04-19T15:31:27.914Z,16.90
2018-04-19T15:36:29.259Z,54.23
2018-04-19T15:41:30.650Z,3.77
2018-04-19T15:46:31.962Z,7.70
2018-04-19T15:51:33.274Z,12.87
2018-04-19T15:56:34.608Z,16.00
2018-04-19T16:01:35.945Z,17.63
2018-04-19T16:06:37.286Z,13.07
2018-04-19T16:11:38.608Z,17.57
2018-04-19T16:16:39.943Z,24.60
2018-04-19T16:21:41.283Z,22.50
2018-04-19T16:26:42.627Z,32.67
2018-04-19T16:31:43.962Z,26.17
2018-04-19T16:36:45.291Z,22.83
2018-04-19T16:41:46.639Z,28.37
2018-04-19T16:46:47.959Z,27.67
2018-04-19T16:51:49.294Z,30.63
2018-04-19T16:56:51.351Z,29.60
2018-04-19T17:01:52.715Z,27.67
2018-04-19T17:06:54.047Z,30.30
2018-04-19T17:11:55.515Z,48.13
2018-04-19T17:16:56.878Z,32.83
2018-04-19T17:21:58.211Z,36.20
2018-04-19T17:26:59.517Z,32.70
2018-04-19T17:32:00.846Z,27.30
2018-04-19T17:37:02.198Z,30.83
2018-04-19T17:42:03.527Z,25.13
2018-04-19T17:47:04.896Z,26.50
2018-04-19T17:52:06.963Z,25.47
2018-04-19T17:57:08.304Z,23.40
2018-04-19T18:02:10.884Z,25.70
2018-04-19T18:07:12.195Z,29.07
2018-04-19T18:12:15.820Z,26.30
2018-04-19T18:17:17.944Z,24.43
2018-04-19T18:22:19.319Z,26.77
2018-04-19T18:27:21.572Z,31.67
2018-04-19T18:32:22.950Z,31.70
2018-04-19T18:37:25.037Z,31.73
2018-04-19T18:42:26.367Z,31.63
2018-04-19T18:47:28.350Z,33.93
2018-04-19T18:52:30.426Z,39.57
2018-04-19T18:57:31.755Z,32.07
2018-04-19T19:02:33.134Z,34.70
2018-04-19T19:07:35.646Z,34.53
2018-04-19T19:12:43.986Z,34.50
2018-04-19T19:18:03.758Z,33.13
2018-04-19T19:23:05.083Z,32.90
2018-04-19T19:28:06.423Z,34.97
2018-04-19T19:33:07.745Z,37.03
2018-04-19T19:38:09.054Z,35.40
2018-04-19T19:43:10.451Z,35.00
2018-04-19T19:48:12.559Z,41.93
2018-04-19T19:53:13.927Z,46.23
2018-04-19T19:58:15.282Z,44.37
2018-04-19T20:03:16.601Z,43.13
2018-04-19T20:08:17.925Z,42.60
2018-04-19T20:13:19.246Z,39.37
2018-04-19T20:18:20.557Z,38.40
2018-04-19T20:23:21.886Z,39.97
2018-04-19T20:28:23.203Z,39.60
2018-04-19T20:33:25.241Z,37.33
2018-04-19T20:38:26.555Z,38.13
2018-04-19T20:43:27.867Z,45.90
2018-04-19T20:48:29.162Z,41.50
2018-04-19T20:53:30.496Z,40.50
2018-04-19T20:58:31.797Z,34.80
2018-04-19T21:03:33.122Z,46.70
2018-04-19T21:08:34.430Z,39.93
2018-04-19T21:13:36.506Z,43.87
2018-04-19T21:18:37.826Z,38.30
2018-04-19T21:23:39.134Z,39.63
2018-04-19T21:28:40.445Z,41.90
2018-04-19T21:33:41.767Z,42.60
2018-04-19T21:38:43.063Z,39.53
2018-04-19T21:43:44.362Z,40.50
2018-04-19T21:48:46.407Z,36.97
2018-04-19T21:53:47.744Z,40.00
2018-04-19T21:58:49.090Z,37.20
2018-04-19T22:03:50.395Z,41.30
2018-04-19T22:08:51.787Z,38.10
2018-04-19T22:13:53.095Z,39.33
2018-04-19T22:18:54.390Z,38.70
2018-04-19T22:23:58.648Z,42.57
2018-04-19T22:28:59.963Z,38.67
2018-04-19T22:34:02.032Z,49.37
2018-04-19T22:39:03.393Z,44.63
2018-04-19T22:44:04.686Z,43.40
2018-04-19T22:49:06.003Z,41.83
2018-04-19T22:54:07.310Z,36.63
2018-04-19T22:59:08.631Z,34.93
2018-04-19T23:04:09.935Z,36.00
2018-04-19T23:09:11.250Z,38.23
2018-04-19T23:14:12.759Z,37.97
2018-04-19T23:19:14.065Z,40.43
2018-04-19T23:24:16.122Z,43.30
2018-04-19T23:29:17.436Z,41.97
2018-04-19T23:34:18.817Z,39.67
2018-04-19T23:39:20.095Z,41.73
2018-04-19T23:44:21.419Z,40.70
2018-04-19T23:49:22.737Z,37.97
2018-04-19T23:54:24.047Z,39.90
2018-04-19T23:59:25.379Z,47.23
